sensor_id;sensor_type;location;lat;lon;timestamp;pressure;altitude;pressure_sealevel;temperature;humidity
65054;BME280;51639;47.828;35.038;2023-07-13T00:09:12;100298.78;;;23.63;61.31
65054;BME280;51639;47.828;35.038;2023-07-13T00:24:17;100295.53;;;23.53;62.02
65054;BME280;51639;47.828;35.038;2023-07-13T00:39:26;100292.72;;;23.36;62.56
65054;BME280;51639;47.828;35.038;2023-07-13T00:54:31;100292.22;;;23.32;63.08
65054;BME280;51639;47.828;35.038;2023-07-13T01:09:34;100302.69;;;22.95;64.27
65054;BME280;51639;47.828;35.038;2023-07-13T01:24:38;100327.53;;;22.78;64.92
65054;BME280;51639;47.828;35.038;2023-07-13T01:39:41;100342.31;;;22.69;66.09
65054;BME280;51639;47.828;35.038;2023-07-13T01:54:43;100340.78;;;22.68;66.14
65054;BME280;51639;47.828;35.038;2023-07-13T02:09:45;100344.56;;;22.71;66.51
65054;BME280;51639;47.828;35.038;2023-07-13T02:24:47;100358.00;;;22.84;67.13
65054;BME280;51639;47.828;35.038;2023-07-13T02:39:49;100367.19;;;23.23;65.30
65054;BME280;51639;47.828;35.038;2023-07-13T02:54:51;100371.28;;;23.33;69.24
65054;BME280;51639;47.828;35.038;2023-07-13T03:09:56;100367.31;;;23.57;70.80
65054;BME280;51639;47.828;35.038;2023-07-13T03:24:58;100358.25;;;23.78;72.74
65054;BME280;51639;47.828;35.038;2023-07-13T03:40:00;100375.63;;;24.12;75.11
65054;BME280;51639;47.828;35.038;2023-07-13T03:55:03;100395.28;;;24.48;75.37
65054;BME280;51639;47.828;35.038;2023-07-13T04:10:05;100406.03;;;24.91;77.17
65054;BME280;51639;47.828;35.038;2023-07-13T04:25:07;100413.69;;;25.78;73.37
65054;BME280;51639;47.828;35.038;2023-07-13T04:40:10;100412.78;;;26.60;68.60
65054;BME280;51639;47.828;35.038;2023-07-13T04:55:14;100411.81;;;27.00;67.08
65054;BME280;51639;47.828;35.038;2023-07-13T05:10:16;100408.44;;;27.07;63.13
65054;BME280;51639;47.828;35.038;2023-07-13T05:25:18;100408.38;;;27.50;58.73
65054;BME280;51639;47.828;35.038;2023-07-13T05:40:20;100409.41;;;27.85;56.07
65054;BME280;51639;47.828;35.038;2023-07-13T05:55:23;100408.72;;;28.56;54.20
65054;BME280;51639;47.828;35.038;2023-07-13T06:10:25;100414.03;;;29.33;50.97
65054;BME280;51639;47.828;35.038;2023-07-13T06:25:27;100409.97;;;30.31;47.77
65054;BME280;51639;47.828;35.038;2023-07-13T06:40:30;100417.09;;;30.89;47.33
65054;BME280;51639;47.828;35.038;2023-07-13T06:55:32;100418.19;;;30.85;45.36
65054;BME280;51639;47.828;35.038;2023-07-13T07:10:35;100420.00;;;31.63;45.56
65054;BME280;51639;47.828;35.038;2023-07-13T07:25:37;100402.41;;;32.61;43.52
65054;BME280;51639;47.828;35.038;2023-07-13T07:40:43;100390.69;;;33.03;42.69
65054;BME280;51639;47.828;35.038;2023-07-13T07:55:48;100388.63;;;33.43;39.72
65054;BME280;51639;47.828;35.038;2023-07-13T08:10:53;100382.09;;;33.66;39.97
65054;BME280;51639;47.828;35.038;2023-07-13T08:26:01;100377.59;;;33.95;40.79
65054;BME280;51639;47.828;35.038;2023-07-13T08:41:14;100400.31;;;35.08;38.93
65054;BME280;51639;47.828;35.038;2023-07-13T08:56:19;100409.50;;;35.80;37.51
65054;BME280;51639;47.828;35.038;2023-07-13T09:26:37;100400.50;;;35.37;36.47
65054;BME280;51639;47.828;35.038;2023-07-13T09:57:16;100391.22;;;36.95;36.27
65054;BME280;51639;47.828;35.038;2023-07-13T10:12:18;100378.19;;;38.11;36.11
65054;BME280;51639;47.828;35.038;2023-07-13T10:27:32;100362.72;;;38.45;34.73
65054;BME280;51639;47.828;35.038;2023-07-13T10:42:37;100350.19;;;36.74;33.96
65054;BME280;51639;47.828;35.038;2023-07-13T10:57:42;100346.88;;;36.87;35.84
65054;BME280;51639;47.828;35.038;2023-07-13T11:28:14;100317.56;;;37.74;33.95
65054;BME280;51639;47.828;35.038;2023-07-13T11:43:18;100300.44;;;36.13;33.84
65054;BME280;51639;47.828;35.038;2023-07-13T11:58:23;100289.84;;;35.12;35.36
65054;BME280;51639;47.828;35.038;2023-07-13T12:13:27;100265.66;;;35.45;36.39
65054;BME280;51639;47.828;35.038;2023-07-13T12:28:35;100227.88;;;34.95;35.58
65054;BME280;51639;47.828;35.038;2023-07-13T12:43:38;100232.97;;;34.35;36.85
65054;BME280;51639;47.828;35.038;2023-07-13T12:58:41;100217.09;;;33.78;37.52
65054;BME280;51639;47.828;35.038;2023-07-13T13:13:45;100207.59;;;33.66;38.98
65054;BME280;51639;47.828;35.038;2023-07-13T13:28:51;100213.38;;;33.50;40.10
65054;BME280;51639;47.828;35.038;2023-07-13T13:43:53;100194.31;;;33.41;39.55
65054;BME280;51639;47.828;35.038;2023-07-13T13:58:55;100167.75;;;33.35;39.69
65054;BME280;51639;47.828;35.038;2023-07-13T14:13:58;100161.59;;;33.88;39.29
65054;BME280;51639;47.828;35.038;2023-07-13T14:29:01;100142.53;;;33.44;39.82
65054;BME280;51639;47.828;35.038;2023-07-13T14:44:15;100122.81;;;33.62;41.20
65054;BME280;51639;47.828;35.038;2023-07-13T14:59:17;100123.94;;;33.24;41.18
65054;BME280;51639;47.828;35.038;2023-07-13T15:14:22;100117.44;;;32.97;41.45
65054;BME280;51639;47.828;35.038;2023-07-13T15:29:28;100121.75;;;32.65;41.99
65054;BME280;51639;47.828;35.038;2023-07-13T15:44:31;100114.41;;;32.70;41.94
65054;BME280;51639;47.828;35.038;2023-07-13T15:59:34;100106.09;;;32.54;41.93
65054;BME280;51639;47.828;35.038;2023-07-13T16:14:36;100092.59;;;32.28;42.67
65054;BME280;51639;47.828;35.038;2023-07-13T16:29:38;100087.25;;;32.07;42.59
65054;BME280;51639;47.828;35.038;2023-07-13T16:44:40;100073.16;;;31.75;42.99
65054;BME280;51639;47.828;35.038;2023-07-13T16:59:43;100065.31;;;31.66;43.91
65054;BME280;51639;47.828;35.038;2023-07-13T17:14:47;100052.66;;;31.49;45.57
65054;BME280;51639;47.828;35.038;2023-07-13T17:29:49;100043.41;;;31.16;46.85
65054;BME280;51639;47.828;35.038;2023-07-13T17:44:52;100038.16;;;30.98;47.42
65054;BME280;51639;47.828;35.038;2023-07-13T17:59:58;100028.09;;;30.64;48.57
65054;BME280;51639;47.828;35.038;2023-07-13T18:15:01;100034.03;;;30.38;50.27
65054;BME280;51639;47.828;35.038;2023-07-13T18:30:03;100029.16;;;30.15;52.17
65054;BME280;51639;47.828;35.038;2023-07-13T18:45:13;100031.81;;;29.85;53.82
65054;BME280;51639;47.828;35.038;2023-07-13T19:00:16;100033.00;;;29.53;54.63
65054;BME280;51639;47.828;35.038;2023-07-13T19:15:30;100017.63;;;29.39;56.54
65054;BME280;51639;47.828;35.038;2023-07-13T19:30:33;100014.06;;;29.03;58.12
65054;BME280;51639;47.828;35.038;2023-07-13T19:45:35;100023.97;;;28.62;61.18
65054;BME280;51639;47.828;35.038;2023-07-13T20:00:37;100037.19;;;28.41;62.44
65054;BME280;51639;47.828;35.038;2023-07-13T20:15:43;100027.78;;;28.31;62.75
65054;BME280;51639;47.828;35.038;2023-07-13T20:30:47;100034.72;;;28.03;63.91
65054;BME280;51639;47.828;35.038;2023-07-13T20:45:55;100038.88;;;27.76;65.61
65054;BME280;51639;47.828;35.038;2023-07-13T21:00:58;100032.44;;;27.41;67.16
65054;BME280;51639;47.828;35.038;2023-07-13T21:16:13;99999.56;;;27.40;68.47
65054;BME280;51639;47.828;35.038;2023-07-13T21:46:27;99983.38;;;27.12;73.04
65054;BME280;51639;47.828;35.038;2023-07-13T22:01:31;99975.66;;;26.92;75.85
65054;BME280;51639;47.828;35.038;2023-07-13T22:16:38;99973.88;;;26.62;80.06
65054;BME280;51639;47.828;35.038;2023-07-13T22:31:42;99942.91;;;26.39;84.44
65054;BME280;51639;47.828;35.038;2023-07-13T22:46:44;99906.34;;;26.16;89.91
65054;BME280;51639;47.828;35.038;2023-07-13T23:01:46;99872.47;;;25.99;95.08
65054;BME280;51639;47.828;35.038;2023-07-13T23:16:49;99840.34;;;25.85;99.91
65054;BME280;51639;47.828;35.038;2023-07-13T23:31:51;99824.94;;;25.84;100.00
65054;BME280;51639;47.828;35.038;2023-07-13T23:46:54;99792.19;;;25.64;100.00
